Time;durP1;ratioP1;P1;durP2;ratioP2;P2;SDS_P1;SDS_P2;PMS_P1;PMS_P2;Temp;Humidity;BMP_temperature;BMP_pressure;BME280_temperature;BME280_humidity;BME280_pressure;Samples;Min_cycle;Max_cycle;Signal;HPM_P1;HPM_P2
2022/06/07 00:01:04;;;;;;;;;;;;;;;21.51;59.09;101158.50;7285155;19;152614;-55
2022/06/07 00:03:30;;;;;;;;;;;;;;;21.48;59.28;101157.16;7287419;19;153179;-56
2022/06/07 00:05:57;;;;;;;;;;;;;;;21.47;59.00;101152.69;7285475;19;153741;-55
2022/06/07 00:08:24;;;;;;;;;;;;;;;21.47;59.30;101151.84;7294880;19;152364;-55
2022/06/07 00:10:51;;;;;;;;;;;;;;;21.46;59.31;101145.38;7281117;19;153917;-54
2022/06/07 00:13:24;;;;;;;;;;;;;;;21.45;59.40;101154.09;7284016;19;151846;-55
2022/06/07 00:15:51;;;;;;;;;;;;;;;21.45;59.44;101152.13;7285402;19;153681;-55
2022/06/07 00:18:18;;;;;;;;;;;;;;;21.45;59.26;101146.50;7284915;19;153280;-56
2022/06/07 00:20:44;;;;;;;;;;;;;;;21.43;59.39;101146.00;7287005;19;151845;-55
2022/06/07 00:23:19;;;;;;;;;;;;;;;21.44;59.21;101150.47;7285538;19;154216;-54
2022/06/07 00:25:48;;;;;;;;;;;;;;;21.44;59.19;101150.47;7283159;19;153692;-55
2022/06/07 00:28:15;;;;;;;;;;;;;;;21.43;59.51;101145.16;7294439;19;151892;-56
2022/06/07 00:30:42;;;;;;;;;;;;;;;21.43;59.79;101140.38;7284252;19;153263;-55
2022/06/07 00:33:22;;;;;;;;;;;;;;;21.44;59.67;101138.41;7286642;19;152133;-56
2022/06/07 00:35:51;;;;;;;;;;;;;;;21.44;59.43;101139.22;7287958;19;152806;-55
2022/06/07 00:38:18;;;;;;;;;;;;;;;21.44;59.26;101133.59;7282805;19;153279;-55
2022/06/07 00:40:44;;;;;;;;;;;;;;;21.43;59.22;101131.94;7285661;19;151729;-55
2022/06/07 00:43:18;;;;;;;;;;;;;;;21.42;59.51;101121.84;7285299;19;153282;-56
2022/06/07 00:45:45;;;;;;;;;;;;;;;21.41;59.77;101122.97;7285110;19;154113;-55
2022/06/07 00:48:12;;;;;;;;;;;;;;;21.40;59.69;101124.13;7284071;19;151928;-56
2022/06/07 00:50:43;;;;;;;;;;;;;;;21.41;59.44;101120.16;7290460;19;154013;-56
2022/06/07 00:53:23;;;;;;;;;;;;;;;21.40;59.26;101115.69;7286340;19;152289;-56
2022/06/07 00:55:51;;;;;;;;;;;;;;;21.39;59.29;101122.47;7284069;19;152779;-55
2022/06/07 00:58:17;;;;;;;;;;;;;;;21.40;59.30;101109.22;7280476;19;154332;-57
2022/06/07 01:00:44;;;;;;;;;;;;;;;21.38;59.45;101109.56;7285968;19;152121;-56
2022/06/07 01:03:20;;;;;;;;;;;;;;;21.39;59.30;101108.41;7283394;19;153060;-56
2022/06/07 01:05:48;;;;;;;;;;;;;;;21.38;59.79;101120.81;7285314;19;154166;-56
2022/06/07 01:11:00;;;;;;;;;;;;;;;21.36;59.12;101117.47;7281719;19;153727;-56
2022/06/07 01:13:31;;;;;;;;;;;;;;;21.36;59.49;101109.03;7287164;19;153855;-56
2022/06/07 01:16:01;;;;;;;;;;;;;;;21.35;59.72;101110.16;7285045;19;153554;-56
2022/06/07 01:18:29;;;;;;;;;;;;;;;21.34;59.74;101119.75;7281033;19;153935;-56
2022/06/07 01:21:28;;;;;;;;;;;;;;;21.33;59.78;101123.72;7285220;19;152297;-56
2022/06/07 01:23:54;;;;;;;;;;;;;;;21.34;59.75;101114.13;7281663;19;152534;-57
2022/06/07 01:26:22;;;;;;;;;;;;;;;21.34;59.70;101119.75;7281596;19;154905;-56
2022/06/07 01:28:49;;;;;;;;;;;;;;;21.32;59.62;101110.78;7285108;19;152076;-57
2022/06/07 01:31:15;;;;;;;;;;;;;;;21.32;59.84;101102.34;7282959;19;152557;-54
2022/06/07 01:33:42;;;;;;;;;;;;;;;21.31;59.86;101109.13;7283398;19;154364;-56
2022/06/07 01:36:11;;;;;;;;;;;;;;;21.30;59.81;101101.84;7291455;19;152006;-56
2022/06/07 01:38:40;;;;;;;;;;;;;;;21.29;59.78;101105.78;7283576;19;153879;-55
2022/06/07 01:43:52;;;;;;;;;;;;;;;21.28;59.62;101095.69;7284743;19;152873;-55
2022/06/07 01:46:19;;;;;;;;;;;;;;;21.28;59.60;101090.06;7282266;19;153956;-55
2022/06/07 01:48:46;;;;;;;;;;;;;;;21.27;59.38;101088.41;7284310;19;152753;-55
2022/06/07 01:51:13;;;;;;;;;;;;;;;21.26;59.50;101087.56;7281784;19;152570;-55
2022/06/07 01:53:39;;;;;;;;;;;;;;;21.27;59.68;101082.78;7282212;19;153272;-55
2022/06/07 01:56:12;;;;;;;;;;;;;;;21.26;59.28;101086.72;7284299;19;151939;-55
2022/06/07 01:58:39;;;;;;;;;;;;;;;21.25;59.49;101090.69;7288323;19;152670;-55
2022/06/07 02:01:06;;;;;;;;;;;;;;;21.23;59.76;101088.19;7283621;19;152290;-55
2022/06/07 02:03:33;;;;;;;;;;;;;;;21.24;59.37;101080.59;7284180;19;154946;-56
2022/06/07 02:06:01;;;;;;;;;;;;;;;21.23;59.66;101078.91;7283552;19;153983;-57
2022/06/07 02:08:28;;;;;;;;;;;;;;;21.22;59.80;101091.31;7281487;19;152962;-56
2022/06/07 02:10:55;;;;;;;;;;;;;;;21.22;59.62;101080.06;7283708;19;154289;-55
2022/06/07 02:13:23;;;;;;;;;;;;;;;21.21;59.88;101082.03;7276875;19;153241;-55
2022/06/07 02:15:49;;;;;;;;;;;;;;;21.22;59.70;101082.88;7281746;19;152008;-56
2022/06/07 02:18:16;;;;;;;;;;;;;;;21.21;59.55;101078.41;7283785;19;152928;-57
2022/06/07 02:20:43;;;;;;;;;;;;;;;21.22;60.01;101071.63;7287590;19;153048;-56
2022/06/07 02:23:22;;;;;;;;;;;;;;;21.20;59.57;101077.59;7282357;19;153060;-55
2022/06/07 02:25:55;;;;;;;;;;;;;;;21.20;59.69;101077.59;7281880;19;152238;-56
2022/06/07 02:28:25;;;;;;;;;;;;;;;21.19;59.66;101067.47;7281454;19;151649;-55
2022/06/07 02:30:52;;;;;;;;;;;;;;;21.17;59.77;101069.75;7282723;19;153902;-56
2022/06/07 02:33:22;;;;;;;;;;;;;;;21.18;59.88;101067.78;7278393;19;153730;-56
2022/06/07 02:35:50;;;;;;;;;;;;;;;21.17;59.82;101068.91;7280733;19;152369;-56
2022/06/07 02:38:17;;;;;;;;;;;;;;;21.16;59.65;101068.09;7282447;19;152529;-56
2022/06/07 02:40:45;;;;;;;;;;;;;;;21.15;59.52;101057.16;7289657;19;154238;-56
2022/06/07 02:43:24;;;;;;;;;;;;;;;21.16;59.71;101056.03;7283154;19;153453;-55
2022/06/07 02:45:54;;;;;;;;;;;;;;;21.15;59.46;101045.94;7280373;19;153853;-55
2022/06/07 02:48:20;;;;;;;;;;;;;;;21.15;59.47;101049.56;7280841;19;151746;-56
2022/06/07 02:50:47;;;;;;;;;;;;;;;21.15;59.74;101052.38;7282528;19;152549;-55
2022/06/07 02:53:21;;;;;;;;;;;;;;;21.16;59.74;101045.63;7279732;19;153954;-56
2022/06/07 02:55:48;;;;;;;;;;;;;;;21.15;59.38;101048.75;7282956;19;153554;-55
2022/06/07 02:58:15;;;;;;;;;;;;;;;21.13;59.91;101042.59;7280814;19;152502;-55
2022/06/07 03:00:42;;;;;;;;;;;;;;;21.13;59.53;101043.41;7278121;19;154076;-54
2022/06/07 03:03:11;;;;;;;;;;;;;;;21.12;59.94;101038.09;7289517;19;151715;-55
2022/06/07 03:05:44;;;;;;;;;;;;;;;21.12;59.91;101036.09;7279108;19;152886;-55
2022/06/07 03:08:18;;;;;;;;;;;;;;;21.12;59.63;101038.09;7280334;19;151519;-55
2022/06/07 03:10:46;;;;;;;;;;;;;;;21.10;59.55;101031.94;7283794;19;152675;-55
2022/06/07 03:13:21;;;;;;;;;;;;;;;21.11;59.51;101030.81;7275042;19;153813;-56
2022/06/07 03:15:48;;;;;;;;;;;;;;;21.09;59.74;101035.88;7272488;19;154327;-55
2022/06/07 03:18:15;;;;;;;;;;;;;;;21.08;59.62;101040.66;7280826;19;153335;-55
2022/06/07 03:20:43;;;;;;;;;;;;;;;21.07;59.84;101032.56;7281047;19;153354;-56
2022/06/07 03:23:10;;;;;;;;;;;;;;;21.07;59.60;101033.41;7282241;19;152028;-56
2022/06/07 03:25:50;;;;;;;;;;;;;;;21.06;59.96;101030.91;7286892;19;152460;-55
2022/06/07 03:28:17;;;;;;;;;;;;;;;21.05;59.80;101038.50;7279096;19;152110;-55
2022/06/07 03:30:44;;;;;;;;;;;;;;;21.05;59.87;101034.84;7281779;19;153571;-56
2022/06/07 03:33:11;;;;;;;;;;;;;;;21.04;60.00;101035.97;7285259;19;154017;-54
2022/06/07 03:35:48;;;;;;;;;;;;;;;21.03;59.81;101037.94;7287342;19;151678;-56
2022/06/07 03:38:21;;;;;;;;;;;;;;;21.01;59.66;101031.84;7288431;19;153596;-56
2022/06/07 03:40:48;;;;;;;;;;;;;;;21.01;59.49;101039.41;7285337;19;153189;-56
2022/06/07 03:43:15;;;;;;;;;;;;;;;21.01;59.72;101039.41;7286438;19;152201;-56
2022/06/07 03:45:50;;;;;;;;;;;;;;;21.00;59.54;101040.56;7287530;19;153280;-56
2022/06/07 03:48:17;;;;;;;;;;;;;;;21.00;59.77;101032.13;7294654;19;153715;-57
2022/06/07 03:50:43;;;;;;;;;;;;;;;20.99;59.94;101036.06;7285716;19;152676;-55
2022/06/07 03:53:11;;;;;;;;;;;;;;;20.97;59.78;101035.56;7282876;19;153792;-57
2022/06/07 03:55:55;;;;;;;;;;;;;;;20.97;59.56;101032.75;7286658;19;151986;-57
2022/06/07 03:58:21;;;;;;;;;;;;;;;20.96;59.58;101033.91;7282454;19;153417;-56
2022/06/07 04:00:48;;;;;;;;;;;;;;;20.95;59.64;101033.06;7283517;19;153624;-56
2022/06/07 04:03:15;;;;;;;;;;;;;;;20.95;59.97;101032.22;7287146;19;152209;-55
2022/06/07 04:05:50;;;;;;;;;;;;;;;20.93;59.89;101035.34;7284857;19;152592;-55
2022/06/07 04:08:17;;;;;;;;;;;;;;;20.94;59.62;101034.19;7286388;19;153237;-55
2022/06/07 04:10:51;;;;;;;;;;;;;;;20.91;59.84;101034.81;7293195;19;151978;-55
2022/06/07 04:13:19;;;;;;;;;;;;;;;20.92;59.64;101046.91;7284890;19;154012;-56
2022/06/07 04:15:54;;;;;;;;;;;;;;;20.91;59.60;101034.81;7282462;19;151870;-57
2022/06/07 04:18:23;;;;;;;;;;;;;;;20.91;59.54;101045.22;7284971;19;157576;-56
2022/06/07 04:20:50;;;;;;;;;;;;;;;20.89;59.67;101033.47;7284348;19;154294;-55
2022/06/07 04:23:20;;;;;;;;;;;;;;;20.91;59.35;101031.19;7285373;19;152678;-55
2022/06/07 04:25:49;;;;;;;;;;;;;;;20.90;59.51;101046.34;7286511;19;153607;-56
2022/06/07 04:28:16;;;;;;;;;;;;;;;20.89;59.53;101039.09;7284066;19;154212;-55
2022/06/07 04:30:44;;;;;;;;;;;;;;;20.88;59.49;101031.81;7285638;19;152264;-56
2022/06/07 04:33:11;;;;;;;;;;;;;;;20.86;59.41;101035.75;7289983;19;156465;-55
2022/06/07 04:35:52;;;;;;;;;;;;;;;20.86;59.28;101049.78;7284752;19;151660;-55
2022/06/07 04:38:20;;;;;;;;;;;;;;;20.86;59.65;101038.56;7286312;19;153629;-55
2022/06/07 04:40:47;;;;;;;;;;;;;;;20.85;59.56;101048.13;7283673;19;153866;-56
2022/06/07 04:43:14;;;;;;;;;;;;;;;20.85;59.38;101048.13;7284329;19;152186;-56
2022/06/07 04:45:49;;;;;;;;;;;;;;;20.84;59.36;101048.44;7285750;19;152603;-55
2022/06/07 04:48:16;;;;;;;;;;;;;;;20.83;59.65;101053.22;7285015;19;153267;-55
2022/06/07 04:50:43;;;;;;;;;;;;;;;20.84;59.41;101045.63;7285780;19;152118;-56
2022/06/07 04:53:09;;;;;;;;;;;;;;;20.83;59.77;101056.03;7290758;19;153478;-55
2022/06/07 04:55:48;;;;;;;;;;;;;;;20.83;59.71;101050.41;7286215;19;152120;-55
2022/06/07 04:58:20;;;;;;;;;;;;;;;20.83;59.38;101053.22;7283655;19;153325;-56
2022/06/07 05:00:47;;;;;;;;;;;;;;;20.83;59.30;101055.19;7284739;19;153821;-56
2022/06/07 05:03:14;;;;;;;;;;;;;;;20.83;59.63;101050.41;7283492;19;152506;-55
2022/06/07 05:05:48;;;;;;;;;;;;;;;20.81;59.37;101049.88;7284952;19;153137;-56
2022/06/07 05:08:17;;;;;;;;;;;;;;;20.81;59.45;101049.88;7284789;19;153751;-56
2022/06/07 05:10:43;;;;;;;;;;;;;;;20.81;59.59;101054.66;7286449;19;152044;-55
2022/06/07 05:13:10;;;;;;;;;;;;;;;20.80;59.62;101056.63;7282016;19;153273;-55
2022/06/07 05:15:46;;;;;;;;;;;;;;;20.80;59.57;101053.00;7289157;19;153186;-56
2022/06/07 05:18:20;;;;;;;;;;;;;;;20.80;59.23;101058.63;7281728;19;154175;-57
2022/06/07 05:20:47;;;;;;;;;;;;;;;20.79;59.25;101057.78;7284291;19;153598;-56
2022/06/07 05:23:13;;;;;;;;;;;;;;;20.79;59.32;101068.19;7284142;19;152502;-56
2022/06/07 05:25:58;;;;;;;;;;;;;;;20.78;59.26;101058.09;7285460;19;153190;-56
2022/06/07 05:28:24;;;;;;;;;;;;;;;20.77;59.07;101054.44;7283721;19;154680;-56
2022/06/07 05:30:51;;;;;;;;;;;;;;;20.77;59.20;101050.81;7282760;19;151876;-55
2022/06/07 05:33:18;;;;;;;;;;;;;;;20.76;59.17;101057.56;7282572;19;153432;-56
2022/06/07 05:35:53;;;;;;;;;;;;;;;20.75;59.09;101059.56;7282053;19;154050;-56
2022/06/07 05:38:21;;;;;;;;;;;;;;;20.76;59.10;101063.16;7292599;19;151918;-55
2022/06/07 05:40:48;;;;;;;;;;;;;;;20.77;59.19;101062.03;7283221;19;155594;-56
2022/06/07 05:43:14;;;;;;;;;;;;;;;20.82;59.38;101059.97;7283005;19;151665;-55
2022/06/07 05:45:49;;;;;;;;;;;;;;;20.85;59.20;101052.91;7283373;19;153890;-56
2022/06/07 05:48:16;;;;;;;;;;;;;;;20.88;59.80;101055.09;7283522;19;153436;-56
2022/06/07 05:50:52;;;;;;;;;;;;;;;20.94;59.50;101055.84;7285533;19;152131;-56
2022/06/07 05:53:19;;;;;;;;;;;;;;;21.00;60.14;101058.25;7282646;19;152447;-56
2022/06/07 05:55:54;;;;;;;;;;;;;;;21.06;60.04;101059.00;7281030;19;153191;-56
2022/06/07 05:58:25;;;;;;;;;;;;;;;21.13;60.77;101065.91;7279104;19;151869;-56
2022/06/07 06:00:57;;;;;;;;;;;;;;;21.20;60.67;101069.16;7291246;19;153059;-55
2022/06/07 06:03:24;;;;;;;;;;;;;;;21.28;60.57;101056.34;7281796;19;151973;-56
2022/06/07 06:05:57;;;;;;;;;;;;;;;21.36;60.60;101066.03;7281993;19;152678;-56
2022/06/07 06:11:16;;;;;;;;;;;;;;;21.51;60.06;101069.38;7282152;19;151873;-54
2022/06/07 06:13:42;;;;;;;;;;;;;;;21.59;59.50;101070.63;7279956;19;153243;-55
2022/06/07 06:16:11;;;;;;;;;;;;;;;21.66;59.28;101077.50;7280027;19;153571;-54
2022/06/07 06:18:39;;;;;;;;;;;;;;;21.73;59.65;101066.66;7279522;19;151934;-55
2022/06/07 06:21:06;;;;;;;;;;;;;;;21.80;59.17;101068.22;7284092;19;153598;-54
2022/06/07 06:23:33;;;;;;;;;;;;;;;21.88;58.55;101061.84;7289179;19;153343;-55
2022/06/07 06:25:59;;;;;;;;;;;;;;;21.95;58.13;101062.28;7281323;19;153206;-56
2022/06/07 06:28:26;;;;;;;;;;;;;;;22.00;57.59;101070.59;7281700;19;153138;-55
2022/06/07 06:30:54;;;;;;;;;;;;;;;22.04;57.41;101066.00;7284058;19;151531;-55
2022/06/07 06:33:20;;;;;;;;;;;;;;;22.07;56.86;101068.22;7281094;19;153329;-56
2022/06/07 06:35:53;;;;;;;;;;;;;;;22.07;55.18;101068.22;7280513;19;153762;-56
2022/06/07 06:38:21;;;;;;;;;;;;;;;22.02;54.38;101063.53;7283038;19;151883;-56
2022/06/07 06:40:48;;;;;;;;;;;;;;;21.79;49.89;101066.56;7281403;19;154941;-56
2022/06/07 06:43:16;;;;;;;;;;;;;;;21.77;48.48;101069.66;7280514;19;153934;-56
2022/06/07 06:45:51;;;;;;;;;;;;;;;21.71;48.03;101062.50;7290984;19;151867;-55
2022/06/07 06:48:21;;;;;;;;;;;;;;;21.63;48.30;101071.66;7281159;19;153327;-55
2022/06/07 06:50:47;;;;;;;;;;;;;;;21.61;48.37;101073.97;7279458;19;152092;-56
2022/06/07 06:53:14;;;;;;;;;;;;;;;21.46;48.09;101074.25;7281932;19;153369;-56
2022/06/07 06:55:49;;;;;;;;;;;;;;;21.47;48.05;101071.16;7280750;19;153270;-56
2022/06/07 06:58:16;;;;;;;;;;;;;;;21.49;48.34;101076.44;7280571;19;153596;-55
2022/06/07 07:00:42;;;;;;;;;;;;;;;21.42;48.37;101065.63;7282092;19;153459;-57
2022/06/07 07:03:09;;;;;;;;;;;;;;;21.35;48.71;101062.38;7281357;19;153602;-56
2022/06/07 07:05:56;;;;;;;;;;;;;;;21.33;48.47;101066.66;7285950;19;152122;-56
2022/06/07 07:08:24;;;;;;;;;;;;;;;21.25;48.42;101056.97;7282064;19;153399;-56
2022/06/07 07:11:02;;;;;;;;;;;;;;;21.12;48.94;101061.38;7279818;19;151755;-56
2022/06/07 07:13:31;;;;;;;;;;;;;;;21.11;48.79;101067.34;7281353;19;153545;-56
2022/06/07 07:15:58;;;;;;;;;;;;;;;21.02;49.48;101070.03;7279806;19;152784;-56
2022/06/07 07:18:25;;;;;;;;;;;;;;;21.13;49.87;101063.09;7275122;19;152548;-57
2022/06/07 07:20:52;;;;;;;;;;;;;;;21.22;50.35;101068.81;7282352;19;153519;-55
2022/06/07 07:23:19;;;;;;;;;;;;;;;21.23;50.59;101059.25;7278141;19;154068;-55
2022/06/07 07:26:00;;;;;;;;;;;;;;;21.33;51.05;101061.88;7281988;19;151843;-55
2022/06/07 07:28:27;;;;;;;;;;;;;;;21.35;51.24;101058.75;7287024;19;152698;-55
2022/06/07 07:30:57;;;;;;;;;;;;;;;21.34;51.84;101051.47;7280758;19;151949;-56
2022/06/07 07:33:31;;;;;;;;;;;;;;;21.36;51.40;101066.84;7277476;19;153220;-57
2022/06/07 07:36:00;;;;;;;;;;;;;;;21.36;51.52;101064.06;7279095;19;153419;-57
2022/06/07 07:38:26;;;;;;;;;;;;;;;21.37;51.71;101068.53;7281041;19;151805;-57
2022/06/07 07:40:53;;;;;;;;;;;;;;;21.38;51.98;101069.38;7282015;19;152998;-55
2022/06/07 07:43:20;;;;;;;;;;;;;;;21.40;51.95;101069.88;7279420;19;153969;-56
2022/06/07 07:45:54;;;;;;;;;;;;;;;21.40;51.77;101072.69;7279906;19;152147;-56
2022/06/07 07:48:22;;;;;;;;;;;;;;;21.40;52.12;101072.69;7280425;19;153479;-55
2022/06/07 07:50:49;;;;;;;;;;;;;;;21.41;51.92;101068.75;7287591;19;153140;-57
2022/06/07 07:53:17;;;;;;;;;;;;;;;21.42;51.81;101065.63;7280516;19;153725;-56
2022/06/07 07:55:50;;;;;;;;;;;;;;;21.42;52.00;101073.22;7277055;19;153698;-56
2022/06/07 07:58:17;;;;;;;;;;;;;;;21.41;52.09;101072.38;7277955;19;152508;-56
2022/06/07 08:00:45;;;;;;;;;;;;;;;21.42;52.32;101071.25;7280873;19;151894;-57
2022/06/07 08:03:12;;;;;;;;;;;;;;;21.41;52.50;101080.81;7278929;19;153957;-57
2022/06/07 08:05:52;;;;;;;;;;;;;;;21.43;52.17;101069.28;7279631;19;151746;-56
2022/06/07 08:08:20;;;;;;;;;;;;;;;21.42;52.45;101076.03;7280061;19;153351;-56
2022/06/07 08:10:47;;;;;;;;;;;;;;;21.42;52.39;101073.22;7276544;19;154297;-55
2022/06/07 08:13:14;;;;;;;;;;;;;;;21.41;52.15;101069.56;7286753;19;152870;-57
2022/06/07 08:15:48;;;;;;;;;;;;;;;21.41;52.61;101060.31;7276273;19;154307;-57
2022/06/07 08:18:15;;;;;;;;;;;;;;;21.41;52.62;101061.13;7279676;19;152221;-56
2022/06/07 08:20:42;;;;;;;;;;;;;;;21.43;52.46;101063.66;7281780;19;153331;-55
2022/06/07 08:23:10;;;;;;;;;;;;;;;21.42;52.45;101057.19;7286392;19;153321;-55
2022/06/07 08:25:39;;;;;;;;;;;;;;;21.39;52.77;101066.25;7287929;19;152259;-57
2022/06/07 08:28:25;;;;;;;;;;;;;;;21.40;52.31;101062.28;7286876;19;153511;-56
2022/06/07 08:30:52;;;;;;;;;;;;;;;21.41;52.52;101061.13;7282297;19;153449;-55
2022/06/07 08:38:54;;;;;;;;;;;;;;;21.42;52.33;101064.78;7286570;19;151598;-56
2022/06/07 08:41:22;;;;;;;;;;;;;;;21.40;52.41;101058.63;7285143;19;153138;-56
2022/06/07 08:43:50;;;;;;;;;;;;;;;21.39;52.38;101054.19;7285229;19;154037;-56
2022/06/07 08:46:18;;;;;;;;;;;;;;;21.37;52.62;101048.84;7285931;19;151916;-56
2022/06/07 08:48:45;;;;;;;;;;;;;;;21.41;52.44;101054.69;7284739;19;153494;-56
2022/06/07 08:51:26;;;;;;;;;;;;;;;21.42;52.24;101050.72;7284130;19;153677;-56
2022/06/07 08:53:54;;;;;;;;;;;;;;;21.39;52.48;101052.22;7284507;19;152617;-56
2022/06/07 08:56:24;;;;;;;;;;;;;;;21.42;52.30;101048.75;7286267;19;152586;-57
2022/06/07 08:58:54;;;;;;;;;;;;;;;21.41;52.41;101043.44;7290021;19;153372;-56
2022/06/07 09:01:31;;;;;;;;;;;;;;;21.41;52.60;101038.66;7285331;19;153317;-56
2022/06/07 09:04:16;;;;;;;;;;;;;;;21.41;52.24;101035.84;7284431;19;154250;-57
2022/06/07 09:06:45;;;;;;;;;;;;;;;21.39;52.65;101034.50;7284157;19;152123;-56
2022/06/07 09:09:14;;;;;;;;;;;;;;;21.38;52.24;101036.47;7286089;19;153748;-56
2022/06/07 09:12:14;;;;;;;;;;;;;;;21.39;52.32;101038.16;7280856;19;153366;-55
2022/06/07 09:14:42;;;;;;;;;;;;;;;21.36;52.11;101037.91;7284122;19;151754;-55
2022/06/07 09:17:12;;;;;;;;;;;;;;;21.39;52.31;101038.16;7281253;19;153157;-56
2022/06/07 09:19:38;;;;;;;;;;;;;;;21.42;52.47;101039.50;7288921;19;153147;-56
2022/06/07 09:22:14;;;;;;;;;;;;;;;21.45;52.11;101038.84;7281639;19;154418;-57
2022/06/07 09:24:42;;;;;;;;;;;;;;;21.44;51.94;101023.97;7284754;19;153231;-56
2022/06/07 09:27:12;;;;;;;;;;;;;;;21.45;52.04;101024.81;7284465;19;152227;-57
2022/06/07 09:29:39;;;;;;;;;;;;;;;21.43;52.07;101025.13;7284304;19;153919;-56
2022/06/07 09:32:18;;;;;;;;;;;;;;;21.40;51.92;101020.13;7283725;19;153963;-56
2022/06/07 09:34:54;;;;;;;;;;;;;;;21.42;51.92;101023.47;7283888;19;152026;-57
2022/06/07 09:37:23;;;;;;;;;;;;;;;21.43;51.88;101016.69;7283128;19;153447;-56
2022/06/07 09:39:53;;;;;;;;;;;;;;;21.46;51.43;101018.88;7281575;19;154260;-55
2022/06/07 09:42:24;;;;;;;;;;;;;;;21.47;51.39;101016.91;7290901;19;151974;-57
2022/06/07 09:44:59;;;;;;;;;;;;;;;21.47;51.13;101017.75;7281452;19;153814;-55
2022/06/07 09:47:27;;;;;;;;;;;;;;;21.49;51.37;101007.00;7282036;19;152300;-57
2022/06/07 09:50:12;;;;;;;;;;;;;;;21.52;51.14;101011.16;7284275;19;152458;-56
2022/06/07 09:52:48;;;;;;;;;;;;;;;21.54;50.93;101015.31;7279634;19;154439;-57
2022/06/07 09:55:36;;;;;;;;;;;;;;;21.49;50.71;101006.16;7276742;19;152189;-56
2022/06/07 09:58:09;;;;;;;;;;;;;;;21.52;50.87;100988.69;7280978;19;153898;-56
2022/06/07 10:00:54;;;;;;;;;;;;;;;21.50;51.17;100999.41;7281776;19;154421;-57
2022/06/07 10:03:39;;;;;;;;;;;;;;;21.50;51.17;100994.59;7283976;19;152299;-57
2022/06/07 10:06:17;;;;;;;;;;;;;;;21.53;51.20;100991.16;7288383;19;152732;-56
2022/06/07 10:09:03;;;;;;;;;;;;;;;21.53;50.95;100993.97;7281108;19;152708;-56
2022/06/07 10:11:29;;;;;;;;;;;;;;;21.54;50.83;100994.81;7282458;19;151907;-57
2022/06/07 10:14:15;;;;;;;;;;;;;;;21.50;50.84;100991.78;7282109;19;154315;-56
2022/06/07 10:17:00;;;;;;;;;;;;;;;21.50;50.53;100983.38;7283415;19;151931;-55
2022/06/07 10:19:39;;;;;;;;;;;;;;;21.46;50.43;100990.75;7283518;19;153366;-56
2022/06/07 10:22:15;;;;;;;;;;;;;;;21.42;50.75;100981.28;7276508;19;154205;-55
2022/06/07 10:24:57;;;;;;;;;;;;;;;21.40;51.17;100983.56;7282265;19;152097;-56
2022/06/07 10:27:37;;;;;;;;;;;;;;;21.42;51.25;100984.09;7282219;19;152735;-57
2022/06/07 10:30:10;;;;;;;;;;;;;;;21.43;51.15;100973.69;7289423;19;154105;-55
2022/06/07 10:33:08;;;;;;;;;;;;;;;21.43;50.98;100973.69;7283275;19;153432;-56
2022/06/07 10:35:48;;;;;;;;;;;;;;;21.37;51.35;100967.34;7278491;19;153578;-57
2022/06/07 10:38:40;;;;;;;;;;;;;;;21.37;51.00;100974.94;7283566;19;151977;-57
2022/06/07 10:41:26;;;;;;;;;;;;;;;21.40;50.85;100971.50;7278169;19;153361;-56
2022/06/07 10:44:08;;;;;;;;;;;;;;;21.37;50.88;100972.13;7282053;19;154436;-57
2022/06/07 10:46:36;;;;;;;;;;;;;;;21.37;51.43;100972.13;7283413;19;152526;-57
2022/06/07 10:49:12;;;;;;;;;;;;;;;21.37;51.36;100961.72;7282861;19;153733;-54
2022/06/07 10:54:45;;;;;;;;;;;;;;;21.44;51.26;100959.31;7287007;19;152093;-57
2022/06/07 10:57:16;;;;;;;;;;;;;;;21.48;51.10;100966.00;7277856;19;154336;-56
2022/06/07 10:59:43;;;;;;;;;;;;;;;21.46;50.95;100971.09;7278632;19;153314;-56
2022/06/07 11:02:21;;;;;;;;;;;;;;;21.48;50.92;100963.19;7280145;19;151654;-56
2022/06/07 11:10:31;;;;;;;;;;;;;;;21.53;51.14;100960.22;7283254;19;153398;-56
2022/06/07 11:13:16;;;;;;;;;;;;;;;21.53;50.93;100951.00;7279235;19;153545;-58
2022/06/07 11:15:58;;;;;;;;;;;;;;;21.55;51.15;100966.38;7286311;19;152315;-56
2022/06/07 11:18:25;;;;;;;;;;;;;;;21.54;50.77;100953.47;7280957;19;153533;-57
2022/06/07 11:21:01;;;;;;;;;;;;;;;21.55;51.18;100954.31;7280539;19;152633;-56
2022/06/07 11:23:32;;;;;;;;;;;;;;;21.55;51.22;100957.94;7276326;19;153198;-56
2022/06/07 11:26:04;;;;;;;;;;;;;;;21.56;50.80;100954.00;7281286;19;153108;-56
2022/06/07 11:28:56;;;;;;;;;;;;;;;21.61;50.96;100958.69;7280352;19;151766;-57
2022/06/07 11:31:43;;;;;;;;;;;;;;;21.56;51.21;100958.78;7280277;19;153389;-55
2022/06/07 11:34:13;;;;;;;;;;;;;;;21.57;51.07;100963.28;7279601;19;153620;-57
2022/06/07 11:36:41;;;;;;;;;;;;;;;21.58;51.05;100957.31;7278624;19;152283;-57
2022/06/07 11:39:23;;;;;;;;;;;;;;;21.56;51.00;100954.00;7287561;19;152648;-56
2022/06/07 11:41:52;;;;;;;;;;;;;;;21.55;50.95;100952.31;7282120;19;151907;-56
2022/06/07 11:44:18;;;;;;;;;;;;;;;21.53;51.02;100956.63;7280618;19;152532;-56
2022/06/07 11:46:51;;;;;;;;;;;;;;;21.50;51.62;100966.50;7279558;19;153469;-56
2022/06/07 11:49:27;;;;;;;;;;;;;;;21.48;51.59;100963.19;7277698;19;151834;-57
2022/06/07 11:51:57;;;;;;;;;;;;;;;21.46;51.28;100953.38;7281635;19;152597;-56
2022/06/07 11:54:36;;;;;;;;;;;;;;;21.45;51.50;100955.34;7284336;19;154398;-56
2022/06/07 11:57:16;;;;;;;;;;;;;;;21.44;51.37;100950.88;7286105;19;152516;-55
2022/06/07 11:59:48;;;;;;;;;;;;;;;21.43;51.78;100954.84;7285027;19;153433;-55
2022/06/07 12:02:14;;;;;;;;;;;;;;;21.41;51.89;100951.50;7293685;19;153239;-56
2022/06/07 12:04:41;;;;;;;;;;;;;;;21.40;51.96;100952.66;7284501;19;153403;-57
2022/06/07 12:07:27;;;;;;;;;;;;;;;21.40;51.81;100949.00;7285871;19;154164;-56
2022/06/07 12:09:55;;;;;;;;;;;;;;;21.39;51.95;100947.38;7286122;19;151527;-56
2022/06/07 12:12:24;;;;;;;;;;;;;;;21.37;51.81;100942.06;7285485;19;153385;-56
2022/06/07 12:14:53;;;;;;;;;;;;;;;21.37;52.14;100944.03;7285815;19;154080;-55
2022/06/07 12:17:25;;;;;;;;;;;;;;;21.36;52.20;100942.34;7284438;19;151929;-57
2022/06/07 12:19:52;;;;;;;;;;;;;;;21.36;51.92;100937.56;7287156;19;153012;-57
2022/06/07 12:22:20;;;;;;;;;;;;;;;21.36;52.23;100931.94;7281544;19;154002;-55
2022/06/07 12:24:54;;;;;;;;;;;;;;;21.37;52.42;100936.44;7290921;19;152181;-54
2022/06/07 12:27:23;;;;;;;;;;;;;;;21.37;52.27;100932.78;7285466;19;153596;-56
2022/06/07 12:29:53;;;;;;;;;;;;;;;21.36;52.14;100943.19;7286397;19;151624;-56
2022/06/07 12:32:21;;;;;;;;;;;;;;;21.36;52.35;100937.56;7285371;19;152055;-56
2022/06/07 12:35:02;;;;;;;;;;;;;;;21.36;52.22;100931.94;7281154;19;152031;-56
2022/06/07 12:37:31;;;;;;;;;;;;;;;21.36;52.48;100933.91;7284993;19;152562;-56
2022/06/07 12:39:58;;;;;;;;;;;;;;;21.34;52.45;100925.81;7285857;19;153185;-56
2022/06/07 12:42:27;;;;;;;;;;;;;;;21.37;52.45;100932.78;7283566;19;153007;-57
2022/06/07 12:44:56;;;;;;;;;;;;;;;21.37;52.25;100932.78;7285368;19;151967;-57
2022/06/07 12:47:36;;;;;;;;;;;;;;;21.37;52.21;100935.59;7289856;19;153987;-56
2022/06/07 12:50:16;;;;;;;;;;;;;;;21.36;52.76;100943.19;7283461;19;151996;-57
2022/06/07 12:52:49;;;;;;;;;;;;;;;21.36;52.87;100931.13;7284358;19;153354;-57
2022/06/07 12:55:19;;;;;;;;;;;;;;;21.35;52.96;100930.28;7284524;19;153423;-57
2022/06/07 12:57:48;;;;;;;;;;;;;;;21.35;52.73;100924.66;7284641;19;152462;-56
2022/06/07 13:00:20;;;;;;;;;;;;;;;21.36;52.64;100925.50;7283311;19;152007;-57
2022/06/07 13:02:48;;;;;;;;;;;;;;;21.36;52.91;100920.72;7285164;19;153965;-56
2022/06/07 13:05:40;;;;;;;;;;;;;;;21.37;52.89;100916.75;7283403;19;151590;-57
2022/06/07 13:08:21;;;;;;;;;;;;;;;21.39;52.57;100922.91;7285231;19;152200;-57
2022/06/07 13:10:48;;;;;;;;;;;;;;;21.37;52.74;100913.94;7290498;19;154413;-56